METAR Data
IDs: Format: Raw Decoded Include TAF

Data at: 0908 UTC 13 Aug 2022

EGOS 130850Z AUTO 08006KT 9999 NCD 23/14 Q1016